Weather observations for the past three days for
Bolinder Field-Tooele Valley Airport
Metric (Imperial)
Date Time (mdt) Wind (kph) Vis. (km) Weather Sky Cond. Temperature (ºC) Relative Humidity Wind Chill (°C) Heat Index (°C) Pressure Precipitation (cm)
Air Dwpt 6 hour altimeter (cm) sea level (mb) 1 hr 3 hr 6 hr
Max. Min.
10 13:15 N 20 8.05 Fair with Haze CLR 25 -3 15% 25 76.66 0.0
10 12:55 N 19 8.05 Fair with Haze CLR 24 -3 16% 24 76.66 0.0
10 12:35 N 13 8.05 Fair with Haze CLR 24 -2 18% 24 76.68 0.0
10 12:15 N 15 8.05 Fair with Haze CLR 24 -3 16% 24 76.71 0.0
10 11:55 Vrbl 9 8.05 Fair with Haze CLR 24 -8 24.2 7.7 11% 24 76.71 0.0
10 11:35 Vrbl 7 8.05 Fair with Haze CLR 23 -3 17% 76.71 0.0
10 10:55 Vrbl 4 8.05 Fair with Haze CLR 23 -8 12% 76.71 0.0
10 10:35 S 19 8.05 Fair with Haze CLR 22 -7 14% 76.71 0.0
10 10:15 S 20 8.05 Fair with Haze CLR 22 -7 14% 76.68 0.0
10 09:55 S 19 8.05 Fair with Haze CLR 22 -6 15% 76.71 0.0
10 09:35 S 22 8.05 Fair with Haze CLR 21 -7 15% 76.71 0.0
10 09:15 S 22 8.05 Fair with Haze CLR 19 -6 18% 76.68 0.0
10 08:55 S 26 8.05 Fair with Haze CLR 18 -7 18% 76.71 0.0
10 08:35 S 22 8.05 Fair with Haze CLR 17 -6 20% 76.68 0.0
10 08:15 S 24 8.05 Fair with Haze CLR 16 -6 22% 76.68 0.0
10 07:55 S 11 8.05 Fair with Haze CLR 14 -6 25% 76.68 0.0
10 07:35 S 19 8.05 Fair with Haze CLR 13 -6 26% 76.66 0.0
10 07:15 SW 17 8.05 Fair with Haze CLR 11 -6 30% 76.66 0.0
10 06:55 Vrbl 2 8.05 Fair with Haze CLR 8 -6 37% 76.63 0.0
10 06:35 S 19 8.05 Fair with Haze CLR 8 -6 37% 5 76.63 0.0
10 06:15 S 19 8.05 Fair with Haze CLR 9 -6 34% 7 76.63 0.0
10 05:55 S 20 8.05 Fair with Haze CLR 8 -5 11.8 6.7 40% 5 76.61 0.0
10 05:35 S 19 8.05 Fair with Haze CLR 8 -5 40% 5 76.61 0.0
10 05:15 S 20 8.05 Fair with Haze CLR 9 -5 37% 6 76.61 0.0
10 04:55 S 17 9.66 Fair with Haze CLR 7 -4 46% 4 76.61 0.0
10 04:35 S 17 9.66 Fair with Haze CLR 7 -4 46% 4 76.58 0.0
10 04:15 S 20 8.05 Fair with Haze CLR 8 -4 43% 5 76.61 0.0
10 03:55 S 15 8.05 Fair with Haze CLR 8 -4 43% 6 76.58 0.0
10 03:35 S 17 9.66 Fair with Haze CLR 7 -5 43% 4 76.58 0.0
10 03:15 S 15 8.05 Fair with Haze CLR 8 -5 40% 6 76.58 0.0
10 02:56 S 17 8.05 Fair with Haze CLR 8 -5 40% 6 76.58 0.0
10 02:35 S 19 8.05 Fair with Haze CLR 8 -6 37% 5 76.56 0.0
10 02:15 S 17 8.05 Fair with Haze CLR 8 -5 40% 6 76.56 0.0
10 01:35 S 17 8.05 Fair with Haze CLR 9 -6 34% 7 76.56 0.0
10 01:15 S 11 8.05 Fair with Haze CLR 10 -5 35% 9 76.56 0.0
10 00:55 SE 6 8.05 Fair with Haze CLR 10 -5 35% 76.56 0.0
10 00:35 S 9 8.05 Fair with Haze CLR 10 -5 35% 9 76.53 0.0
10 00:15 S 9 8.05 Fair with Haze CLR 10 -5 35% 9 76.5 0.0
09 23:55 S 11 8.05 Fair with Haze CLR 8 -4 26.2 7.9 43% 6 76.5 0.0
09 23:35 SE 13 8.05 Fair with Haze CLR 10 -6 32% 8 76.48 0.0
09 23:15 S 13 8.05 Fair with Haze CLR 10 -6 32% 8 76.48 0.0
09 22:55 S 13 8.05 Fair with Haze CLR 10 -5 35% 8 76.48 0.0
09 22:35 S 19 8.05 Fair with Haze CLR 8 -4 43% 5 76.45 0.0
09 22:15 S 11 8.05 Fair with Haze CLR 12 -5 30% 76.45 0.0
09 21:55 S 15 6.44 Fair with Haze CLR 13 -5 28% 76.43 0.0
09 21:35 SW 17 4.83 Fair with Haze CLR 12 -5 30% 76.4 0.0
09 21:15 SE 9 8.05 Fair with Haze CLR 13 -2 36% 76.38 0.0
09 20:55 SE 2 8.05 Fair with Haze CLR 17 -3 25% 76.35 0.0
09 20:35 NE 7 6.44 Fair with Haze CLR 19 -3 22% 76.35 0.0
09 20:15 NE 9 6.44 Fair with Haze CLR 20 -2 23% 76.33 0.0
09 19:55 NE 9 8.05 Fair with Haze CLR 22 -2 20% 76.33 0.0
09 19:35 E 9 8.05 Fair with Haze CLR 25 -6 12% 25 76.33 0.0
09 19:15 Vrbl 2 8.05 Fair with Haze CLR 25 -10 9% 24 76.33 0.0
09 18:55 SE 6 8.05 Fair with Haze CLR 26 -10 8% 25 76.33 0.0
09 18:35 W 7 8.05 Fair with Haze CLR 24 -9 10% 24 76.33 0.0
09 18:15 Vrbl 4 8.05 Fair with Haze CLR 25 -8 11% 24 76.35 0.0
09 17:55 NE 6 8.05 Fair with Haze CLR 24 -7 24.7 19.9 12% 24 76.35 0.0
09 17:35 N 9 8.05 Fair with Haze CLR 24 -6 13% 24 76.38 0.0
09 17:15 NE 13 9.66 Fair with Haze CLR 23 -6 14% 76.38 0.0
09 16:55 NE 13 8.05 Fair with Haze CLR 23 -5 15% 76.38 0.0
09 16:35 NE 13 8.05 Fair with Haze CLR 24 -5 14% 24 76.4 0.0
09 16:15 Vrbl 11 9.66 Fair with Haze CLR 23 -4 16% 76.4 0.0
09 15:55 NE 17 9.66 Fair with Haze CLR 23 -3 17% 76.43 0.0
09 15:35 Vrbl 9 8.05 Fair with Haze CLR 24 -3 16% 24 76.43 0.0
09 15:15 Vrbl 6 8.05 Fair with Haze CLR 23 -3 17% 76.45 0.0
09 14:55 N 9 9.66 Fair with Haze CLR 22 -3 19% 76.45 0.0
09 14:35 N 9 9.66 Fair with Haze CLR 22 -3 19% 76.48 0.0
09 14:15 Vrbl 7 9.66 Fair with Haze CLR 22 -3 19% 76.48 0.0
09 13:55 N 15 9.66 Fair with Haze CLR 22 -2 20% 76.48 0.0
09 13:35 NE 17 9.66 Fair with Haze CLR 22 -2 20% 76.5 0.0
09 13:15 N 13 6.44 Fair with Haze CLR 21 -1 23% 76.5 0.0
09 12:55 NE 13 9.66 Fair with Haze CLR 21 -2 21% 76.53 0.0
09 12:35 Vrbl 7 9.66 Fair with Haze CLR 21 -1 23% 76.53 0.0
09 12:15 Vrbl 9 9.66 Fair with Haze CLR 20 -1 24% 76.53 0.0
09 11:55 NE 17 9.66 Fair with Haze CLR 21 -1 20.2 6.3 23% 76.53 0.0
09 11:35 Vrbl 7 9.66 Fair with Haze CLR 20 -2 23% 76.56 0.0
09 11:15 N 19 9.66 Fair with Haze CLR 20 -2 23% 76.53 0.0
09 10:55 N 13 9.66 Fair with Haze CLR 20 -2 23% 76.53 0.0
09 10:35 N 13 9.66 Fair with Haze CLR 19 -1 26% 76.53 0.0
09 10:15 N 9 9.66 Fair with Haze CLR 19 -1 26% 76.53 0.0
09 09:55 N 11 8.05 Fair with Haze CLR 19 -2 24% 76.53 0.0
09 09:35 NE 15 9.66 Fair with Haze CLR 19 -2 24% 76.53 0.0
09 09:15 Vrbl 4 8.05 Fair with Haze CLR 19 -1 26% 76.53 0.0
09 08:55 Calm 8.05 Fair with Haze CLR 18 1 32% 76.5 0.0
09 08:35 N 6 8.05 Fair with Haze CLR 17 2 37% 76.5 0.0
09 08:15 W 4 8.05 Fair with Haze CLR 16 2 39% 76.5 0.0
09 07:55 S 7 8.05 Fair with Haze CLR 15 3 45% 76.48 0.0
09 07:16 S 11 8.05 Fair with Haze CLR 9 2 62% 8 76.43 0.0
09 06:55 S 17 8.05 Fair with Haze CLR 7 2 71% 4 76.43 0.0
09 06:35 S 11 6.44 Fair with Haze CLR 7 1 66% 5 76.4 0.0
09 06:15 S 13 8.05 Fair with Haze CLR 7 2 71% 5 76.4 0.0
09 05:55 SW 11 8.05 Fair with Haze CLR 7 2 14.1 5.2 71% 5 76.38 0.0
09 05:35 S 15 8.05 Fair with Haze CLR 6 1 71% 3 76.38 0.0
09 05:15 S 13 8.05 Fair with Haze CLR 7 2 71% 5 76.38 0.0
09 04:55 S 13 8.05 Fair with Haze CLR 7 2 71% 5 76.38 0.0
09 04:35 SE 11 8.05 Fair with Haze CLR 8 2 66% 6 76.38 0.0
09 04:15 S 7 8.05 Fair with Haze CLR 8 1 62% 7 76.35 0.0
09 03:55 S 7 8.05 Fair with Haze CLR 9 2 62% 8 76.35 0.0
09 03:35 Vrbl 6 6.44 Fair with Haze CLR 9 2 62% 76.33 0.0
09 03:15 S 7 6.44 Fair with Haze CLR 9 2 62% 8 76.33 0.0
09 02:55 Vrbl 6 6.44 Fair with Haze CLR 10 2 58% 76.3 0.0
09 02:35 W 6 6.44 Fair with Haze CLR 10 1 54% 76.3 0.0
09 02:15 S 6 6.44 Fair with Haze CLR 12 2 51% 76.28 0.0
09 01:55 S 7 6.44 A Few Clouds with Haze FEW120 11 2 54% 76.28 0.0
09 01:35 SE 9 6.44 A Few Clouds with Haze FEW120 12 2 51% 76.25 0.0
09 01:15 W 11 6.44 Fair with Haze CLR 12 1 47% 76.23 0.0
09 00:55 SW 7 6.44 Fair with Haze CLR 13 -1 38% 76.23 0.0
09 00:35 Vrbl 9 6.44 Fair with Haze CLR 13 0 41% 76.2 0.0
09 00:15 SW 9 6.44 A Few Clouds with Haze FEW120 11 0 47% 76.17 0.0
08 23:55 S 17 6.44 A Few Clouds with Haze FEW120 11 1 28.6 8.6 50% 76.17 0.0
08 23:35 S 9 6.44 Fair with Haze CLR 14 1 41% 76.17 0.0
08 23:15 Vrbl 4 8.05 Fair with Haze CLR 12 0 44% 76.17 0.0
08 22:55 S 11 8.05 Fair with Haze CLR 13 0 41% 76.12 0.0
08 22:35 S 11 8.05 Fair with Haze CLR 15 0 36% 76.12 0.0
08 22:15 S 11 6.44 Fair with Haze CLR 15 0 36% 76.1 0.0
08 21:55 S 13 6.44 Fair with Haze CLR 15 0 36% 76.1 0.0
08 21:35 S 13 6.44 Fair with Haze CLR 19 -1 26% 76.07 0.0
08 21:15 SW 15 6.44 Fair with Haze CLR 16 1 36% 76.05 0.0
08 20:35 SE 4 6.44 Fair with Haze CLR 19 1 30% 76.02 0.0
08 20:15 E 7 6.44 Fair with Haze CLR 24 0 21% 25 76.02 0.0
08 19:55 SE 7 6.44 Fair with Haze CLR 24 2 24% 25 76.02 0.0
08 19:35 E 9 6.44 Fair with Haze CLR 26 0 18% 25 76.02 0.0
08 19:15 E 9 6.44 Fair with Haze CLR 28 -2 14% 27 76.05 0.0
08 18:56 Vrbl 6 6.44 Fair with Haze CLR 28 -3 13% 27 76.05 0.0
08 18:35 E 7 6.44 Fair with Haze CLR 28 -2 14% 27 76.07 0.0
08 18:16 SE 9 6.44 Fair with Haze CLR 28 -2 14% 27 76.07 0.0
08 17:55 SE 9 6.44 Fair with Haze CLR 28 -2 28 22 14% 27 76.07 0.0
08 17:35 NE 13 6.44 Fair with Haze CLR 27 -2 15% 26 76.1 0.0
08 16:55 Vrbl 7 6.44 Fair with Haze CLR 26 -2 16% 25 76.12 0.0
08 16:36 N 13 6.44 Fair with Haze CLR 26 -2 16% 25 76.12 0.0
08 16:15 Vrbl 11 8.05 Fair with Haze CLR 26 -2 16% 25 76.17 0.0
08 15:55 NE 9 8.05 Fair with Haze CLR 26 -1 17% 25 76.17 0.0
08 15:35 NE 19 G 28 8.05 Fair with Haze CLR 26 -1 17% 25 76.2 0.0
08 15:15 N 20 G 28 8.05 Fair with Haze CLR 25 -1 18% 25 76.23 0.0
08 14:55 N 13 6.44 Fair with Haze CLR 25 -1 18% 25 76.23 0.0
08 14:35 N 19 6.44 Fair with Haze CLR 25 -1 18% 25 76.25 0.0
08 14:15 N 11 8.05 Fair with Haze CLR 24 -1 19% 24 76.25 0.0
08 13:35 N 15 4.83 Fair with Haze CLR 24 -1 19% 24 76.28 0.0
08 13:15 N 13 G 28 6.44 Fair with Haze CLR 24 -1 19% 24 76.28 0.0
08 12:55 N 15 6.44 Fair with Haze CLR 23 -2 19% 76.3 0.0
08 12:35 Vrbl 9 8.05 Fair with Haze CLR 23 -1 20% 76.33 0.0
08 12:15 N 15 8.05 Fair with Haze CLR 23 0 22% 76.33 0.0
08 11:35 Vrbl 7 8.05 Fair with Haze CLR 22 -1 22% 76.35 0.0
08 10:55 N 19 8.05 Fair with Haze CLR 22 -1 22% 76.35 0.0
08 10:35 N 11 8.05 Fair with Haze CLR 22 -1 22% 76.35 0.0
08 10:15 N 11 8.05 Fair with Haze CLR 21 1 27% 76.33 0.0
08 09:55 NE 7 8.05 Fair with Haze CLR 20 2 30% 76.33 0.0
08 09:35 N 13 8.05 Fair with Haze CLR 20 2 30% 76.33 0.0
08 09:15 Vrbl 7 6.44 Fair with Haze CLR 20 2 30% 76.33 0.0
08 08:55 Vrbl 2 6.44 Fair with Haze CLR 19 3 35% 76.3 0.0
08 08:35 SW 7 6.44 Fair with Haze CLR 17 3 39% 76.3 0.0
08 08:15 SW 9 6.44 Fair with Haze CLR 16 2 39% 76.28 0.0
08 07:35 S 9 6.44 Fair with Haze CLR 13 2 47% 76.28 0.0
08 07:15 S 11 6.44 Fair with Haze CLR 10 2 58% 9 76.25 0.0
08 06:55 S 13 8.05 Fair with Haze CLR 8 1 62% 6 76.23 0.0
08 06:35 SW 7 6.44 Fair with Haze CLR 7 1 66% 6 76.23 0.0
08 06:15 S 13 8.05 A Few Clouds with Haze FEW049 8 2 66% 6 76.2 0.0
08 05:55 S 13 8.05 Partly Cloudy with Haze SCT049 7 2 12.4 6.7 71% 5 76.17 0.0
08 05:35 S 17 8.05 A Few Clouds with Haze FEW049 8 1 62% 6 76.17 0.0
08 05:15 SE 7 8.05 Fair with Haze CLR 10 2 58% 9 76.2 0.0
08 04:55 S 15 8.05 A Few Clouds with Haze FEW050 8 1 62% 6 76.17 0.0
08 04:15 S 17 8.05 Fair with Haze CLR 8 2 66% 6 76.17 0.0
08 03:55 S 11 8.05 Fair with Haze CLR 9 1 58% 8 76.17 0.0
08 03:35 S 11 8.05 Fair with Haze CLR 10 1 54% 9 76.17 0.0
08 03:15 S 15 8.05 Fair with Haze CLR 9 2 62% 7 76.15 0.0
08 02:55 S 15 8.05 Fair with Haze CLR 10 2 58% 8 76.15 0.0
08 02:35 SE 11 8.05 Fair with Haze CLR 11 2 54% 76.15 0.0
08 02:15 Vrbl 2 6.44 Fair with Haze CLR 11 1 50% 76.15 0.0
08 01:55 S 13 8.05 Fair with Haze CLR 11 1 50% 76.12 0.0
08 01:35 S 15 8.05 Fair with Haze CLR 11 1 50% 76.15 0.0
08 01:15 S 15 8.05 Fair with Haze CLR 11 2 54% 76.15 0.0
08 00:55 S 20 8.05 Fair with Haze CLR 11 2 54% 76.12 0.0
08 00:35 S 13 8.05 Fair with Haze CLR 11 2 54% 76.12 0.0
08 00:15 S 17 8.05 Fair with Haze CLR 10 2 58% 8 76.12 0.0
07 23:55 S 11 8.05 Fair with Haze CLR 10 2 27.8 9.8 58% 9 76.12 0.0
07 23:35 SE 9 8.05 Fair with Haze CLR 12 2 51% 76.12 0.0
07 23:15 S 7 8.05 Fair with Haze CLR 12 2 51% 76.1 0.0
07 22:55 S 13 8.05 Fair with Haze CLR 12 2 51% 76.07 0.0
07 22:35 S 15 8.05 Fair with Haze CLR 13 2 47% 76.07 0.0
07 22:15 S 19 8.05 A Few Clouds with Haze FEW120 11 2 54% 76.07 0.0
07 21:55 S 13 6.44 A Few Clouds with Haze FEW120 14 2 44% 76.07 0.0
07 21:35 SW 9 6.44 Fair with Haze CLR 14 2 44% 76.05 0.0
07 21:15 SE 9 6.44 Fair with Haze CLR 14 3 48% 76.02 0.0
07 20:55 NE 7 8.05 Fair with Haze CLR 18 2 34% 76.02 0.0
07 20:35 NE 15 6.44 Fair with Haze CLR 20 2 30% 76 0.0
07 20:15 E 9 8.05 Fair with Haze CLR 24 2 24% 25 76 0.0
07 19:55 E 9 8.05 Fair with Haze CLR 26 4 24% 26 76 0.0
07 19:35 E 7 8.05 Fair with Haze CLR 26 0 18% 25 76 0.0
07 19:15 E 6 8.05 Fair with Haze CLR 28 -1 15% 27 76 0.0
07 18:55 Vrbl 4 8.05 Fair with Haze CLR 27 -1 16% 26 76 0.0
07 18:35 E 7 8.05 Fair with Haze CLR 26 -1 17% 25 76 0.0
07 18:15 Vrbl 6 8.05 Fair with Haze CLR 26 -1 17% 25 76.02 0.0
07 17:55 Vrbl 6 8.05 Fair with Haze CLR 26 -2 26.9 22.4 16% 25 76.05 0.0
07 17:35 Vrbl 4 8.05 Fair with Haze CLR 25 -1 18% 25 76.05 0.0
07 17:15 Vrbl 6 8.05 Fair with Haze CLR 26 -2 16% 25 76.07 0.0
07 16:55 Vrbl 4 8.05 Fair with Haze CLR 25 -2 17% 25 76.07 0.0
07 16:35 W 11 8.05 Fair with Haze CLR 25 -2 17% 25 76.1 0.0
07 16:16 N 15 8.05 Fair with Haze CLR 25 -1 18% 25 76.12 0.0
07 15:55 N 15 G 28 8.05 Fair with Haze CLR 26 -1 17% 25 76.15 0.0
07 15:36 Vrbl 11 8.05 Fair with Haze CLR 25 -1 18% 25 76.15 0.0
07 15:15 Vrbl 7 8.05 Partly Cloudy with Haze SCT100 25 -2 17% 25 76.17 0.0
07 14:55 Vrbl 6 8.05 Partly Cloudy with Haze SCT100 25 -2 17% 25 76.2 0.0
07 14:35 Vrbl 11 8.05 Partly Cloudy with Haze SCT100 25 -2 17% 25 76.23 0.0
07 14:15 Vrbl 9 8.05 Partly Cloudy with Haze SCT100 24 -2 18% 24 76.23 0.0
07 13:55 Vrbl 7 8.05 Fair with Haze CLR 24 -2 18% 24 76.25 0.0
07 13:35 N 13 8.05 Fair with Haze CLR 23 -2 19% 76.25 0.0
Date Time (mdt) Wind (kph) Vis. (km) Weather Sky Cond. Air Dwpt Max. Min. Relative Humidity Wind Chill (°C) Heat Index (°C) altimeter (cm) sea level (mb) 1 hr 3 hr 6 hr
6 hour
Temperature (ºC) Pressure Precipitation (cm)